createdAt,value
2022-12-23T00:02:30.244Z,82.00
2022-12-23T00:05:38.202Z,71.05
2022-12-23T00:08:42.041Z,82.00
2022-12-23T00:12:04.624Z,78.85
2022-12-23T00:15:07.525Z,80.43
2022-12-23T00:18:10.131Z,84.43
2022-12-23T00:21:16.470Z,84.00
2022-12-23T00:24:19.160Z,81.27
2022-12-23T00:27:21.469Z,74.80
2022-12-23T00:30:24.535Z,81.03
2022-12-23T00:33:29.749Z,78.18
2022-12-23T00:36:32.492Z,72.00
2022-12-23T00:39:55.166Z,74.00
2022-12-23T00:42:59.873Z,76.07
2022-12-23T00:46:02.204Z,75.30
2022-12-23T00:49:23.887Z,77.87
2022-12-23T00:52:27.133Z,78.62
2022-12-23T00:55:30.502Z,73.70
2022-12-23T00:58:32.824Z,75.28
2022-12-23T01:01:54.508Z,71.75
2022-12-23T01:05:15.432Z,77.45
2022-12-23T01:08:18.014Z,75.07
2022-12-23T01:11:20.335Z,72.83
2022-12-23T01:14:23.500Z,66.53
2022-12-23T01:17:25.852Z,70.28
2022-12-23T01:20:28.523Z,67.03
2022-12-23T01:23:31.278Z,73.07
2022-12-23T01:26:34.072Z,70.40
2022-12-23T01:29:36.420Z,66.78
2022-12-23T01:32:39.020Z,70.95
2022-12-23T01:35:41.340Z,68.65
2022-12-23T01:38:44.044Z,72.93
2022-12-23T01:42:04.871Z,67.83
2022-12-23T01:45:16.188Z,68.72
2022-12-23T01:48:21.957Z,64.40
2022-12-23T01:51:30.008Z,62.15
2022-12-23T01:54:33.023Z,63.92
2022-12-23T01:57:40.112Z,64.00
2022-12-23T02:01:01.455Z,63.80
2022-12-23T02:04:09.699Z,68.18
2022-12-23T02:07:32.100Z,63.25
2022-12-23T02:10:52.217Z,71.55
2022-12-23T02:14:38.080Z,66.80
2022-12-23T02:18:11.393Z,69.70
2022-12-23T02:21:22.968Z,70.10
2022-12-23T02:24:59.317Z,73.80
2022-12-23T02:28:42.463Z,76.50
2022-12-23T02:31:58.253Z,75.93
2022-12-23T02:35:09.587Z,76.57
2022-12-23T02:38:20.888Z,76.07
2022-12-23T02:41:31.506Z,80.25
2022-12-23T02:44:45.069Z,79.00
2022-12-23T02:47:55.137Z,81.87
2022-12-23T02:51:00.265Z,83.22
2022-12-23T02:54:07.117Z,87.62
2022-12-23T02:57:12.722Z,84.37
2022-12-23T03:00:16.054Z,89.97
2022-12-23T03:03:21.143Z,91.43
2022-12-23T03:06:29.274Z,84.20
2022-12-23T03:09:56.081Z,88.32
2022-12-23T03:13:10.042Z,92.18
2022-12-23T03:16:15.611Z,97.05
2022-12-23T03:19:30.047Z,99.33
2022-12-23T03:22:38.151Z,105.97
2022-12-23T03:25:53.757Z,104.57
2022-12-23T03:29:03.829Z,107.90
2022-12-23T03:32:08.242Z,107.78
2022-12-23T03:35:15.809Z,110.43
2022-12-23T03:38:19.384Z,104.65
2022-12-23T03:41:27.988Z,103.10
2022-12-23T03:44:35.454Z,114.47
2022-12-23T03:47:46.808Z,114.55
2022-12-23T03:50:53.735Z,112.90
2022-12-23T03:54:07.825Z,120.47
2022-12-23T03:57:12.306Z,130.43
2022-12-23T04:00:15.023Z,121.85
2022-12-23T04:03:26.332Z,126.47
2022-12-23T04:06:34.132Z,134.80
2022-12-23T04:09:37.903Z,122.85
2022-12-23T04:12:40.647Z,117.18
2022-12-23T04:15:43.465Z,129.65
2022-12-23T04:18:45.869Z,111.93
2022-12-23T04:21:48.526Z,128.90
2022-12-23T04:24:50.989Z,149.45
2022-12-23T04:27:53.646Z,117.10
2022-12-23T04:30:56.002Z,108.70
2022-12-23T04:33:58.730Z,129.90
2022-12-23T04:37:01.163Z,128.40
2022-12-23T04:40:04.732Z,116.45
2022-12-23T04:43:07.084Z,166.45
2022-12-23T04:46:09.814Z,146.75
2022-12-23T04:49:12.154Z,123.35
2022-12-23T04:52:14.857Z,124.17
2022-12-23T04:55:17.187Z,103.78
2022-12-23T04:58:22.162Z,123.38
2022-12-23T05:01:24.635Z,112.10
2022-12-23T05:04:27.467Z,112.82
2022-12-23T05:07:29.941Z,116.13
2022-12-23T05:10:32.673Z,131.68
2022-12-23T05:13:35.070Z,109.07
2022-12-23T05:16:38.050Z,117.03
2022-12-23T05:19:40.403Z,140.37
2022-12-23T05:22:43.052Z,139.50
2022-12-23T05:25:51.803Z,117.97
2022-12-23T05:28:55.088Z,100.70
2022-12-23T05:31:57.544Z,102.10
2022-12-23T05:35:00.182Z,92.30
2022-12-23T05:38:03.385Z,94.83
2022-12-23T05:41:06.344Z,87.25
2022-12-23T05:44:08.654Z,81.70
2022-12-23T05:47:11.667Z,77.90
2022-12-23T05:50:14.253Z,76.28
2022-12-23T05:53:17.100Z,76.90
2022-12-23T05:56:19.484Z,83.05
2022-12-23T05:59:23.572Z,78.93
2022-12-23T06:02:28.831Z,92.25
2022-12-23T06:05:31.567Z,77.37
2022-12-23T06:08:33.998Z,80.23
2022-12-23T06:11:36.641Z,76.87
2022-12-23T06:14:38.968Z,87.95
2022-12-23T06:17:41.752Z,70.35
2022-12-23T06:20:48.065Z,65.37
2022-12-23T06:23:50.766Z,60.27
2022-12-23T06:26:57.081Z,69.18
2022-12-23T06:30:00.256Z,70.82
2022-12-23T06:33:02.535Z,56.35
2022-12-23T06:36:05.721Z,71.78
2022-12-23T06:39:10.435Z,60.63
2022-12-23T06:42:13.047Z,68.20
2022-12-23T06:45:15.378Z,64.20
2022-12-23T06:48:18.074Z,68.72
2022-12-23T06:51:20.458Z,64.90
2022-12-23T06:54:23.087Z,71.77
2022-12-23T06:57:25.370Z,78.45
2022-12-23T07:00:28.057Z,68.07
2022-12-23T07:03:30.475Z,65.60
2022-12-23T07:06:33.130Z,68.15
2022-12-23T07:09:35.487Z,61.63
2022-12-23T07:12:38.632Z,66.95
2022-12-23T07:15:40.982Z,63.55
2022-12-23T07:18:43.929Z,56.75
2022-12-23T07:21:46.236Z,60.10
2022-12-23T07:24:48.845Z,68.43
2022-12-23T07:27:55.232Z,51.70
2022-12-23T07:30:58.080Z,62.72
2022-12-23T07:34:00.504Z,53.38
2022-12-23T07:37:03.145Z,54.20
2022-12-23T07:40:08.807Z,55.30
2022-12-23T07:43:11.827Z,55.22
2022-12-23T07:46:14.290Z,56.45
2022-12-23T07:49:17.034Z,50.80
2022-12-23T07:52:19.527Z,51.22
2022-12-23T07:55:22.545Z,48.37
2022-12-23T07:58:25.225Z,51.53
2022-12-23T08:01:27.949Z,48.38
2022-12-23T08:04:30.658Z,42.28
2022-12-23T08:07:33.043Z,52.90
2022-12-23T08:10:35.746Z,48.07
2022-12-23T08:13:40.083Z,53.50
2022-12-23T08:16:44.261Z,46.42
2022-12-23T08:19:47.889Z,55.55
2022-12-23T08:22:50.553Z,69.22
2022-12-23T08:26:08.144Z,59.83
2022-12-23T08:29:10.711Z,57.53
2022-12-23T08:32:13.079Z,55.72
2022-12-23T08:35:15.964Z,63.95
2022-12-23T08:38:18.352Z,59.38
2022-12-23T08:41:25.024Z,64.67
2022-12-23T08:44:28.142Z,62.10
2022-12-23T08:47:30.887Z,58.55
2022-12-23T08:50:40.717Z,59.63
2022-12-23T08:53:43.508Z,68.30
2022-12-23T08:56:45.810Z,67.67
2022-12-23T08:59:48.445Z,65.18
2022-12-23T09:02:50.887Z,72.72
2022-12-23T09:05:53.574Z,73.68
2022-12-23T09:08:56.230Z,67.00
2022-12-23T09:11:58.855Z,65.90
2022-12-23T09:15:01.237Z,69.20
2022-12-23T09:18:03.918Z,66.60
2022-12-23T09:21:10.964Z,64.40
2022-12-23T09:24:13.701Z,77.87
2022-12-23T09:27:16.288Z,61.97
2022-12-23T09:30:19.175Z,62.45
2022-12-23T09:33:21.783Z,58.05
2022-12-23T09:36:24.530Z,66.62
2022-12-23T09:39:26.864Z,66.47
2022-12-23T09:42:48.128Z,59.90
2022-12-23T09:45:53.399Z,66.57
2022-12-23T09:49:02.651Z,72.05
2022-12-23T09:52:13.736Z,68.62
2022-12-23T09:55:18.744Z,74.35
2022-12-23T09:58:35.679Z,61.13
2022-12-23T10:02:04.759Z,63.75
2022-12-23T10:05:46.182Z,56.42
2022-12-23T10:08:53.617Z,53.92
2022-12-23T10:11:57.140Z,57.20
2022-12-23T10:15:02.672Z,58.57
2022-12-23T10:18:28.225Z,54.72
2022-12-23T10:21:37.798Z,53.30
2022-12-23T10:24:47.636Z,51.80
2022-12-23T10:27:50.156Z,55.85
2022-12-23T10:31:31.149Z,58.13
2022-12-23T10:34:48.711Z,56.22
2022-12-23T10:38:03.522Z,59.50
2022-12-23T10:41:15.411Z,59.05
2022-12-23T10:44:24.503Z,50.78
2022-12-23T10:47:51.959Z,60.23
2022-12-23T10:51:01.436Z,55.83
2022-12-23T10:54:12.071Z,52.15
2022-12-23T10:57:16.783Z,52.05
2022-12-23T11:00:23.104Z,65.18
2022-12-23T11:03:30.129Z,63.47
2022-12-23T11:06:37.616Z,61.53
2022-12-23T11:09:54.467Z,63.50
2022-12-23T11:12:56.882Z,64.97
2022-12-23T11:16:32.264Z,66.95
2022-12-23T11:19:34.736Z,57.87
2022-12-23T11:22:49.725Z,62.30
2022-12-23T11:26:00.038Z,70.82
2022-12-23T11:29:10.686Z,61.33
2022-12-23T11:32:20.915Z,67.82
2022-12-23T11:35:30.104Z,68.03
2022-12-23T11:38:33.955Z,69.30
2022-12-23T11:41:40.184Z,78.32
2022-12-23T11:44:51.908Z,69.15
2022-12-23T11:47:56.232Z,72.85
2022-12-23T11:51:04.018Z,67.03
2022-12-23T11:54:06.676Z,69.07
2022-12-23T11:57:19.339Z,70.82
2022-12-23T12:00:36.663Z,79.95
2022-12-23T12:03:48.756Z,65.25
2022-12-23T12:06:56.564Z,70.83
2022-12-23T12:10:01.796Z,70.22
2022-12-23T12:13:08.317Z,77.70
2022-12-23T12:16:22.764Z,75.65
2022-12-23T12:19:57.776Z,79.32
2022-12-23T12:23:09.529Z,69.70
2022-12-23T12:26:23.579Z,78.20
2022-12-23T12:29:38.046Z,68.07
2022-12-23T12:32:46.420Z,70.47
2022-12-23T12:35:57.782Z,74.65
2022-12-23T12:39:02.641Z,74.17
2022-12-23T12:42:14.455Z,71.12
2022-12-23T12:45:22.684Z,72.55
2022-12-23T12:48:32.669Z,80.80
2022-12-23T12:51:46.596Z,73.87
2022-12-23T12:55:01.516Z,74.00
2022-12-23T12:58:03.971Z,76.18
2022-12-23T13:01:22.192Z,65.60
2022-12-23T13:04:30.532Z,72.25
2022-12-23T13:08:02.512Z,67.82
2022-12-23T13:11:33.780Z,69.60
2022-12-23T13:14:59.187Z,74.35
2022-12-23T13:18:21.651Z,69.28
2022-12-23T13:21:38.377Z,71.95
2022-12-23T13:24:58.734Z,69.25
2022-12-23T13:28:54.320Z,67.13
2022-12-23T13:32:27.894Z,66.85
2022-12-23T13:35:39.256Z,74.72
2022-12-23T13:39:00.206Z,75.78
2022-12-23T13:42:06.034Z,71.97
2022-12-23T13:45:17.539Z,59.43
2022-12-23T13:48:47.951Z,64.03
2022-12-23T13:52:11.515Z,67.32
2022-12-23T13:55:29.166Z,59.95
2022-12-23T13:58:32.792Z,62.97
2022-12-23T14:01:47.399Z,69.93
2022-12-23T14:04:59.157Z,60.85
2022-12-23T14:08:06.438Z,62.85
2022-12-23T14:11:09.064Z,66.55
2022-12-23T14:14:57.904Z,62.72
2022-12-23T14:18:48.929Z,62.77
2022-12-23T14:22:13.006Z,64.75
2022-12-23T14:25:45.935Z,68.22
2022-12-23T14:29:09.398Z,65.12
2022-12-23T14:32:44.479Z,63.55
2022-12-23T14:35:46.748Z,63.70
2022-12-23T14:39:11.136Z,64.22
2022-12-23T14:42:32.536Z,64.10
2022-12-23T14:45:42.376Z,66.80
2022-12-23T14:48:44.663Z,62.35
2022-12-23T14:51:50.867Z,63.90
2022-12-23T14:55:21.121Z,69.28
2022-12-23T14:58:20.090Z,66.45
2022-12-23T15:01:34.357Z,78.20
2022-12-23T15:04:46.504Z,73.85
2022-12-23T15:07:49.406Z,72.73
2022-12-23T15:10:52.166Z,76.55
2022-12-23T15:13:57.213Z,79.45
2022-12-23T15:17:00.333Z,68.47
2022-12-23T15:20:23.404Z,80.32
2022-12-23T15:23:26.428Z,69.93
2022-12-23T15:26:32.853Z,66.22
2022-12-23T15:29:35.652Z,66.82
2022-12-23T15:32:41.244Z,73.70
2022-12-23T15:35:44.358Z,71.47
2022-12-23T15:38:46.755Z,71.37
2022-12-23T15:41:49.391Z,73.18
2022-12-23T15:44:51.882Z,72.40
2022-12-23T15:47:55.179Z,69.62
2022-12-23T15:51:11.811Z,74.50
2022-12-23T15:54:23.035Z,70.37
2022-12-23T15:57:28.331Z,68.87
2022-12-23T16:00:41.076Z,72.43
2022-12-23T16:03:51.390Z,68.00
2022-12-23T16:06:55.496Z,71.43
2022-12-23T16:10:02.102Z,78.07
2022-12-23T16:13:04.442Z,73.50
2022-12-23T16:16:29.362Z,74.65
2022-12-23T16:19:43.820Z,69.05
2022-12-23T16:22:50.368Z,69.20
2022-12-23T16:25:53.579Z,83.27
2022-12-23T16:29:00.808Z,75.55
2022-12-23T16:32:03.259Z,71.25
2022-12-23T16:35:12.937Z,65.72
2022-12-23T16:38:33.297Z,70.03
2022-12-23T16:41:36.304Z,71.87
2022-12-23T16:44:39.562Z,75.72
2022-12-23T16:47:42.889Z,65.22
2022-12-23T16:50:46.233Z,65.70
2022-12-23T16:53:57.518Z,68.15
2022-12-23T16:57:00.107Z,70.23
2022-12-23T17:00:02.974Z,70.50
2022-12-23T17:03:07.103Z,75.37
2022-12-23T17:06:14.094Z,79.03
2022-12-23T17:09:16.465Z,77.85
2022-12-23T17:12:19.427Z,79.43
2022-12-23T17:15:24.233Z,74.97
2022-12-23T17:18:26.805Z,86.40
2022-12-23T17:21:33.491Z,77.03
2022-12-23T17:24:36.317Z,85.47
2022-12-23T17:27:40.314Z,79.33
2022-12-23T17:30:42.964Z,81.25
2022-12-23T17:33:45.349Z,81.60
2022-12-23T17:36:50.712Z,80.28
2022-12-23T17:39:53.388Z,71.78
2022-12-23T17:42:56.007Z,68.30
2022-12-23T17:45:58.433Z,75.70
2022-12-23T17:49:01.069Z,72.80
2022-12-23T17:52:06.497Z,84.35
2022-12-23T17:55:24.379Z,85.38
2022-12-23T17:58:26.839Z,81.13
2022-12-23T18:01:31.952Z,81.75
2022-12-23T18:04:34.687Z,78.65
2022-12-23T18:07:36.986Z,70.20
2022-12-23T18:10:40.767Z,73.75
2022-12-23T18:13:43.180Z,70.70
2022-12-23T18:16:46.414Z,74.95
2022-12-23T18:19:49.021Z,73.28
2022-12-23T18:22:53.725Z,77.55
2022-12-23T18:25:57.257Z,77.70
2022-12-23T18:28:59.926Z,76.97
2022-12-23T18:32:02.240Z,68.45
2022-12-23T18:35:22.277Z,64.20
2022-12-23T18:38:24.652Z,72.93
2022-12-23T18:41:28.051Z,72.47
2022-12-23T18:44:30.386Z,69.80
2022-12-23T18:47:33.075Z,71.87
2022-12-23T18:50:38.625Z,73.05
2022-12-23T18:53:41.687Z,71.95
2022-12-23T18:56:44.410Z,73.00
2022-12-23T18:59:47.058Z,78.23
2022-12-23T19:02:50.373Z,86.95
2022-12-23T19:05:55.060Z,79.57
2022-12-23T19:08:57.467Z,89.53
2022-12-23T19:12:00.408Z,93.50
2022-12-23T19:15:02.795Z,85.23
2022-12-23T19:18:05.557Z,81.22
2022-12-23T19:21:09.306Z,81.70
2022-12-23T19:24:12.048Z,80.90
2022-12-23T19:27:14.319Z,76.22
2022-12-23T19:30:18.176Z,76.43
2022-12-23T19:33:20.464Z,79.18
2022-12-23T19:36:23.490Z,79.57
2022-12-23T19:39:27.011Z,87.93
2022-12-23T19:42:30.558Z,83.37
2022-12-23T19:45:32.898Z,84.53
2022-12-23T19:48:36.454Z,80.57
2022-12-23T19:51:38.760Z,82.97
2022-12-23T19:54:41.410Z,85.80
2022-12-23T19:57:43.899Z,85.40
2022-12-23T20:00:46.541Z,88.37
2022-12-23T20:03:50.029Z,81.75
2022-12-23T20:06:52.455Z,81.37
2022-12-23T20:09:55.108Z,96.15
2022-12-23T20:12:57.421Z,90.68
2022-12-23T20:16:00.407Z,78.97
2022-12-23T20:19:03.616Z,79.90
2022-12-23T20:22:06.190Z,88.30
2022-12-23T20:25:08.783Z,83.28
2022-12-23T20:28:11.426Z,82.43
2022-12-23T20:31:22.587Z,86.43
2022-12-23T20:34:25.288Z,98.93
2022-12-23T20:37:27.654Z,80.50
2022-12-23T20:40:30.473Z,96.87
2022-12-23T20:43:34.718Z,95.43
2022-12-23T20:46:37.401Z,90.30
2022-12-23T20:49:39.815Z,89.10
2022-12-23T20:52:42.496Z,87.12
2022-12-23T20:55:44.871Z,86.28
2022-12-23T20:58:56.050Z,93.18
2022-12-23T21:01:59.358Z,78.63
2022-12-23T21:05:02.228Z,92.93
2022-12-23T21:08:04.829Z,82.07
2022-12-23T21:11:07.708Z,90.15
2022-12-23T21:14:10.609Z,91.63
2022-12-23T21:17:13.179Z,85.77
2022-12-23T21:20:15.560Z,76.87
2022-12-23T21:23:18.179Z,79.45
2022-12-23T21:26:23.174Z,85.62
2022-12-23T21:29:26.124Z,83.45
2022-12-23T21:32:28.469Z,84.00
2022-12-23T21:35:31.044Z,88.37
2022-12-23T21:38:39.225Z,95.20
2022-12-23T21:41:42.433Z,82.70
2022-12-23T21:44:44.727Z,89.20
2022-12-23T21:47:47.346Z,103.57
2022-12-23T21:50:49.631Z,78.30
2022-12-23T21:53:54.415Z,83.20
2022-12-23T21:56:56.765Z,82.97
2022-12-23T21:59:59.393Z,85.35
2022-12-23T22:03:01.761Z,72.20
2022-12-23T22:06:12.260Z,70.40
2022-12-23T22:09:19.135Z,81.93
2022-12-23T22:12:21.723Z,73.80
2022-12-23T22:15:24.121Z,84.13
2022-12-23T22:18:26.907Z,100.67
2022-12-23T22:21:31.965Z,78.47
2022-12-23T22:24:34.640Z,79.07
2022-12-23T22:27:37.053Z,77.78
2022-12-23T22:30:39.687Z,82.05
2022-12-23T22:33:42.231Z,90.87
2022-12-23T22:36:45.269Z,88.70
2022-12-23T22:39:47.769Z,92.97
2022-12-23T22:42:50.385Z,86.47
2022-12-23T22:46:00.488Z,88.65
2022-12-23T22:49:03.394Z,78.50
2022-12-23T22:52:05.700Z,86.35
2022-12-23T22:55:08.707Z,87.37
2022-12-23T22:58:11.083Z,83.03
2022-12-23T23:01:33.126Z,82.35
2022-12-23T23:04:35.574Z,81.80
2022-12-23T23:07:39.081Z,76.45
2022-12-23T23:10:41.892Z,71.87
2022-12-23T23:13:44.473Z,73.12
2022-12-23T23:16:47.431Z,66.97
2022-12-23T23:19:51.210Z,60.67
2022-12-23T23:22:53.636Z,61.47
2022-12-23T23:25:56.279Z,62.42
2022-12-23T23:28:58.590Z,66.43
2022-12-23T23:32:01.880Z,66.97
2022-12-23T23:35:10.565Z,62.90
2022-12-23T23:38:13.501Z,74.25
2022-12-23T23:41:20.668Z,68.45
2022-12-23T23:44:25.426Z,69.60
2022-12-23T23:47:27.779Z,70.55
2022-12-23T23:50:30.588Z,70.57
2022-12-23T23:53:33.008Z,72.22
2022-12-23T23:56:38.552Z,67.68
2022-12-23T23:59:41.597Z,69.50
